createdAt,value
2019-04-29T00:01:31.084Z,7.10
2019-04-29T00:03:59.749Z,5.57
2019-04-29T00:06:28.428Z,5.07
2019-04-29T00:08:57.184Z,7.20
2019-04-29T00:11:29.083Z,5.40
2019-04-29T00:13:58.307Z,3.43
2019-04-29T00:16:34.349Z,6.70
2019-04-29T00:19:10.200Z,5.57
2019-04-29T00:21:40.454Z,6.73
2019-04-29T00:24:09.064Z,5.77
2019-04-29T00:26:37.799Z,6.17
2019-04-29T00:29:06.430Z,5.77
2019-04-29T00:31:35.158Z,5.80
2019-04-29T00:34:03.765Z,9.17
2019-04-29T00:36:36.720Z,5.53
2019-04-29T00:39:23.282Z,6.23
2019-04-29T00:41:59.282Z,6.57
2019-04-29T00:44:29.697Z,6.67
2019-04-29T00:46:58.319Z,5.77
2019-04-29T00:49:27.324Z,5.83
2019-04-29T00:51:58.928Z,4.50
2019-04-29T00:54:37.873Z,8.40
2019-04-29T00:57:06.475Z,5.63
2019-04-29T00:59:35.086Z,6.47
2019-04-29T01:02:04.206Z,4.53
2019-04-29T01:04:32.768Z,6.40
2019-04-29T01:07:01.311Z,3.80
2019-04-29T01:09:30.967Z,7.10
2019-04-29T01:11:59.590Z,5.07
2019-04-29T01:14:31.134Z,8.27
2019-04-29T01:16:59.693Z,8.33
2019-04-29T01:19:28.319Z,10.00
2019-04-29T01:21:56.931Z,8.87
2019-04-29T01:24:27.900Z,8.20
2019-04-29T01:26:58.158Z,10.73
2019-04-29T01:29:32.300Z,7.80
2019-04-29T01:32:00.914Z,9.53
2019-04-29T01:34:42.841Z,7.30
2019-04-29T01:37:11.454Z,7.37
2019-04-29T01:39:53.784Z,7.40
2019-04-29T01:42:23.976Z,8.93
2019-04-29T01:44:52.542Z,8.20
2019-04-29T01:47:21.091Z,7.87
2019-04-29T01:49:49.654Z,7.70
2019-04-29T01:52:18.263Z,11.00
2019-04-29T01:54:47.222Z,7.73
2019-04-29T01:57:15.893Z,7.43
2019-04-29T01:59:44.502Z,7.10
2019-04-29T02:02:13.215Z,8.13
2019-04-29T02:04:41.825Z,12.07
2019-04-29T02:07:10.442Z,9.73
2019-04-29T02:09:56.364Z,9.33
2019-04-29T02:12:26.833Z,12.57
2019-04-29T02:14:55.742Z,11.83
2019-04-29T02:17:24.459Z,12.30
2019-04-29T02:19:53.467Z,10.57
2019-04-29T02:22:29.457Z,13.93
2019-04-29T02:25:01.274Z,10.13
2019-04-29T02:27:29.852Z,11.70
2019-04-29T02:29:58.481Z,12.30
2019-04-29T02:32:27.189Z,15.50
2019-04-29T02:34:58.793Z,12.60
2019-04-29T02:37:30.499Z,11.60
2019-04-29T02:40:06.147Z,12.30
2019-04-29T02:42:51.487Z,15.83
2019-04-29T02:45:21.686Z,13.40
2019-04-29T02:47:50.244Z,14.73
2019-04-29T02:50:19.581Z,14.40
2019-04-29T02:52:48.585Z,15.80
2019-04-29T02:55:18.919Z,13.40
2019-04-29T02:57:55.330Z,14.53
2019-04-29T03:00:27.764Z,19.67
2019-04-29T03:02:58.098Z,14.50
2019-04-29T03:05:31.607Z,14.90
2019-04-29T03:08:00.651Z,18.30
2019-04-29T03:10:29.260Z,22.40
2019-04-29T03:12:57.878Z,15.43
2019-04-29T03:15:31.063Z,20.40
2019-04-29T03:18:00.007Z,19.50
2019-04-29T03:20:36.500Z,20.00
2019-04-29T03:23:09.611Z,20.50
2019-04-29T03:25:38.499Z,21.27
2019-04-29T03:28:07.155Z,20.23
2019-04-29T03:30:35.764Z,16.37
2019-04-29T03:33:04.798Z,20.20
2019-04-29T03:35:33.350Z,22.47
2019-04-29T03:38:01.929Z,25.00
2019-04-29T03:40:30.486Z,19.83
2019-04-29T03:42:59.043Z,17.20
2019-04-29T03:45:27.609Z,25.23
2019-04-29T03:47:58.029Z,22.20
2019-04-29T03:50:29.655Z,17.90
2019-04-29T03:52:58.371Z,24.83
2019-04-29T03:55:38.947Z,22.37
2019-04-29T03:58:00.665Z,24.07
2019-04-29T04:00:29.425Z,23.50
2019-04-29T04:03:17.814Z,23.63
2019-04-29T04:05:48.061Z,20.03
2019-04-29T04:08:21.491Z,26.00
2019-04-29T04:10:50.114Z,25.27
2019-04-29T04:13:18.725Z,22.90
2019-04-29T04:15:47.273Z,22.33
2019-04-29T04:18:29.465Z,28.83
2019-04-29T04:20:58.386Z,23.90
2019-04-29T04:23:26.959Z,23.00
2019-04-29T04:25:57.669Z,26.10
2019-04-29T04:28:28.539Z,25.97
2019-04-29T04:30:58.713Z,31.03
2019-04-29T04:33:28.795Z,24.13
2019-04-29T04:36:00.357Z,34.70
2019-04-29T04:38:28.937Z,28.00
2019-04-29T04:41:02.218Z,32.17
2019-04-29T04:43:30.786Z,34.30
2019-04-29T04:45:59.343Z,34.90
2019-04-29T04:48:29.578Z,34.27
2019-04-29T04:51:00.862Z,30.53
2019-04-29T04:53:29.477Z,31.27
2019-04-29T04:56:01.763Z,31.03
2019-04-29T04:58:30.760Z,33.33
2019-04-29T05:00:59.333Z,31.10
2019-04-29T05:03:30.011Z,31.30
2019-04-29T05:05:58.619Z,36.17
2019-04-29T05:08:28.708Z,28.60
2019-04-29T05:10:57.925Z,38.07
2019-04-29T05:13:28.388Z,46.03
2019-04-29T05:15:59.191Z,34.10
2019-04-29T05:18:27.767Z,38.03
2019-04-29T05:20:56.599Z,39.10
2019-04-29T05:23:25.198Z,38.83
2019-04-29T05:25:53.759Z,35.97
2019-04-29T05:28:22.419Z,38.40
2019-04-29T05:30:50.978Z,45.87
2019-04-29T05:33:19.637Z,40.57
2019-04-29T05:35:49.884Z,37.03
2019-04-29T05:38:29.563Z,33.50
2019-04-29T05:41:01.462Z,34.20
2019-04-29T05:43:33.456Z,36.53
2019-04-29T05:46:09.839Z,35.53
2019-04-29T05:48:38.458Z,34.83
2019-04-29T05:51:08.705Z,32.40
2019-04-29T05:53:41.823Z,32.20
2019-04-29T05:56:10.440Z,34.17
2019-04-29T05:58:39.601Z,31.93
2019-04-29T06:01:10.047Z,35.07
2019-04-29T06:03:39.839Z,35.90
2019-04-29T06:06:08.491Z,39.27
2019-04-29T06:08:39.260Z,32.53
2019-04-29T06:11:07.455Z,37.90
2019-04-29T06:13:36.066Z,32.83
2019-04-29T06:16:04.690Z,30.90
2019-04-29T06:18:33.379Z,32.83
2019-04-29T06:21:09.097Z,35.00
2019-04-29T06:23:32.673Z,42.63
2019-04-29T06:26:01.270Z,36.23
2019-04-29T06:28:29.899Z,35.60
2019-04-29T06:30:58.907Z,37.70
2019-04-29T06:33:31.038Z,33.23
2019-04-29T06:35:59.632Z,30.40
2019-04-29T06:38:31.016Z,33.27
2019-04-29T06:40:59.934Z,30.53
2019-04-29T06:43:30.352Z,29.87
2019-04-29T06:45:58.824Z,30.10
2019-04-29T06:48:28.954Z,34.20
2019-04-29T06:51:00.747Z,31.13
2019-04-29T06:53:29.301Z,29.13
2019-04-29T06:55:57.858Z,29.30
2019-04-29T06:58:26.499Z,26.57
2019-04-29T07:01:01.147Z,26.10
2019-04-29T07:03:26.639Z,26.80
2019-04-29T07:05:55.240Z,25.00
2019-04-29T07:08:23.796Z,26.30
2019-04-29T07:10:55.952Z,23.47
2019-04-29T07:13:24.452Z,21.57
2019-04-29T07:15:53.340Z,25.80
2019-04-29T07:18:21.937Z,24.13
2019-04-29T07:20:50.652Z,23.30
2019-04-29T07:23:19.205Z,24.10
2019-04-29T07:25:47.787Z,23.10
2019-04-29T07:28:18.486Z,22.63
2019-04-29T07:31:01.101Z,23.27
2019-04-29T07:33:22.078Z,22.87
2019-04-29T07:35:48.291Z,20.43
2019-04-29T07:38:18.009Z,22.97
2019-04-29T07:40:46.633Z,25.60
2019-04-29T07:43:15.188Z,20.67
2019-04-29T07:45:51.841Z,22.00
2019-04-29T07:48:20.453Z,24.70
2019-04-29T07:50:48.982Z,26.43
2019-04-29T07:53:21.867Z,20.43
2019-04-29T07:55:48.030Z,23.10
2019-04-29T07:58:16.639Z,20.30
2019-04-29T08:00:48.752Z,22.07
2019-04-29T08:03:15.602Z,27.67
2019-04-29T08:05:44.226Z,29.20
2019-04-29T08:08:16.796Z,25.60
2019-04-29T08:10:54.067Z,25.90
2019-04-29T08:13:14.750Z,25.23
2019-04-29T08:15:43.656Z,28.50
2019-04-29T08:18:16.258Z,33.40
2019-04-29T08:20:42.961Z,30.40
2019-04-29T08:23:11.614Z,24.00
2019-04-29T08:25:40.243Z,25.60
2019-04-29T08:28:08.863Z,23.93
2019-04-29T08:30:37.483Z,21.70
2019-04-29T08:33:07.489Z,23.33
2019-04-29T08:35:37.074Z,20.37
2019-04-29T08:38:06.721Z,21.70
2019-04-29T08:40:35.435Z,17.90
2019-04-29T08:43:22.374Z,19.33
2019-04-29T08:45:52.825Z,18.93
2019-04-29T08:48:21.435Z,22.97
2019-04-29T08:50:49.996Z,21.20
2019-04-29T08:53:18.977Z,26.13
2019-04-29T08:55:47.997Z,24.07
2019-04-29T08:58:16.608Z,21.00
2019-04-29T09:00:45.634Z,23.57
2019-04-29T09:03:14.282Z,30.07
2019-04-29T09:05:46.224Z,27.77
2019-04-29T09:08:13.948Z,22.70
2019-04-29T09:10:42.543Z,26.70
2019-04-29T09:13:11.100Z,22.23
2019-04-29T09:15:39.761Z,27.87
2019-04-29T09:18:10.819Z,25.57
2019-04-29T09:20:39.037Z,25.33
2019-04-29T09:23:12.377Z,24.57
2019-04-29T09:25:42.637Z,30.67
2019-04-29T09:28:17.952Z,29.93
2019-04-29T09:30:43.656Z,32.03
2019-04-29T09:33:13.110Z,28.83
2019-04-29T09:35:42.531Z,32.43
2019-04-29T09:38:11.224Z,29.67
2019-04-29T09:40:45.668Z,30.70
2019-04-29T09:43:32.919Z,30.83
2019-04-29T09:46:18.760Z,30.07
2019-04-29T09:48:47.453Z,35.60
2019-04-29T09:51:18.105Z,34.50
2019-04-29T09:53:46.638Z,35.77
2019-04-29T09:56:15.223Z,36.67
2019-04-29T09:58:43.784Z,32.30
2019-04-29T10:01:19.119Z,28.30
2019-04-29T10:04:01.413Z,34.27
2019-04-29T10:06:31.618Z,34.97
2019-04-29T10:09:00.222Z,29.90
2019-04-29T10:11:28.944Z,29.43
2019-04-29T10:14:00.116Z,31.03
2019-04-29T10:16:39.477Z,27.60
2019-04-29T10:19:25.190Z,36.43
2019-04-29T10:21:54.206Z,29.73
2019-04-29T10:24:23.033Z,29.00
2019-04-29T10:26:52.175Z,30.20
2019-04-29T10:29:25.608Z,28.03
2019-04-29T10:31:53.284Z,29.50
2019-04-29T10:34:21.854Z,33.20
2019-04-29T10:36:52.304Z,31.50
2019-04-29T10:39:28.700Z,36.27
2019-04-29T10:42:00.392Z,30.77
2019-04-29T10:44:46.554Z,30.73
2019-04-29T10:47:33.176Z,30.40
2019-04-29T10:50:03.763Z,30.60
2019-04-29T10:52:34.493Z,31.30
2019-04-29T10:55:02.827Z,30.10
2019-04-29T10:57:31.438Z,30.23
2019-04-29T11:00:21.727Z,28.33
2019-04-29T11:02:51.188Z,26.00
2019-04-29T11:05:30.254Z,30.57
2019-04-29T11:08:02.625Z,31.43
2019-04-29T11:10:32.893Z,27.90
2019-04-29T11:13:01.543Z,22.67
2019-04-29T11:15:34.980Z,28.50
2019-04-29T11:18:04.578Z,24.40
2019-04-29T11:20:33.575Z,27.03
2019-04-29T11:23:16.453Z,28.47
2019-04-29T11:26:00.563Z,24.80
2019-04-29T11:28:30.172Z,28.50
2019-04-29T11:30:59.242Z,31.90
2019-04-29T11:33:30.988Z,22.07
2019-04-29T11:36:03.833Z,30.40
2019-04-29T11:38:33.007Z,27.17
2019-04-29T11:41:01.938Z,18.30
2019-04-29T11:43:31.186Z,26.03
2019-04-29T11:46:00.029Z,18.87
2019-04-29T11:48:28.689Z,21.27
2019-04-29T11:51:01.816Z,18.83
2019-04-29T11:53:30.392Z,17.97
2019-04-29T11:55:59.136Z,19.73
2019-04-29T11:58:44.760Z,23.10
2019-04-29T12:01:39.273Z,18.67
2019-04-29T12:04:13.960Z,18.07
2019-04-29T12:06:43.173Z,32.40
2019-04-29T12:09:12.196Z,26.10
2019-04-29T12:11:40.804Z,24.47
2019-04-29T12:14:14.301Z,20.17
2019-04-29T12:16:47.252Z,20.67
2019-04-29T12:19:23.134Z,20.40
2019-04-29T12:21:51.848Z,26.73
2019-04-29T12:24:21.161Z,17.67
2019-04-29T12:26:49.882Z,14.23
2019-04-29T12:29:19.649Z,16.47
2019-04-29T12:32:01.981Z,16.40
2019-04-29T12:34:32.229Z,19.47
2019-04-29T12:37:00.952Z,12.27
2019-04-29T12:39:47.908Z,27.03
2019-04-29T12:42:35.768Z,15.53
2019-04-29T12:45:26.830Z,18.97
2019-04-29T12:47:57.602Z,18.23
2019-04-29T12:50:26.488Z,19.97
2019-04-29T12:52:57.014Z,15.37
2019-04-29T12:55:46.073Z,21.30
2019-04-29T12:58:12.764Z,19.50
2019-04-29T13:00:48.042Z,21.40
2019-04-29T13:03:30.975Z,32.33
2019-04-29T13:06:02.643Z,22.53
2019-04-29T13:08:41.739Z,19.63
2019-04-29T13:11:10.451Z,21.73
2019-04-29T13:13:39.163Z,22.50
2019-04-29T13:16:27.657Z,22.23
2019-04-29T13:19:11.576Z,19.73
2019-04-29T13:21:31.327Z,14.90
2019-04-29T13:24:13.394Z,15.63
2019-04-29T13:26:33.297Z,24.83
2019-04-29T13:29:01.605Z,17.33
2019-04-29T13:31:38.418Z,21.37
2019-04-29T13:34:14.565Z,20.87
2019-04-29T13:36:33.236Z,18.23
2019-04-29T13:39:01.888Z,18.60
2019-04-29T13:41:30.495Z,14.30
2019-04-29T13:44:05.639Z,22.67
2019-04-29T13:46:33.069Z,16.97
2019-04-29T13:49:13.461Z,17.33
2019-04-29T13:51:41.135Z,16.40
2019-04-29T13:54:09.767Z,19.80
2019-04-29T13:56:54.803Z,17.03
2019-04-29T13:59:12.422Z,26.60
2019-04-29T14:01:58.359Z,23.50
2019-04-29T14:04:24.264Z,18.83
2019-04-29T14:06:56.640Z,26.43
2019-04-29T14:09:19.030Z,20.53
2019-04-29T14:12:01.094Z,19.17
2019-04-29T14:14:22.740Z,24.13
2019-04-29T14:16:48.780Z,18.37
2019-04-29T14:19:20.449Z,19.17
2019-04-29T14:21:47.771Z,14.40
2019-04-29T14:24:16.325Z,21.37
2019-04-29T14:26:47.832Z,22.03
2019-04-29T14:29:15.716Z,17.27
2019-04-29T14:31:45.979Z,15.43
2019-04-29T14:34:20.493Z,21.67
2019-04-29T14:36:49.245Z,23.23
2019-04-29T14:39:36.183Z,19.27
2019-04-29T14:41:50.907Z,17.60
2019-04-29T14:44:33.342Z,17.00
2019-04-29T14:47:03.704Z,19.00
2019-04-29T14:49:39.738Z,16.00
2019-04-29T14:52:08.169Z,20.00
2019-04-29T14:54:41.876Z,17.93
2019-04-29T14:57:09.212Z,16.60
2019-04-29T14:59:38.239Z,18.83
2019-04-29T15:02:17.146Z,14.63
2019-04-29T15:04:45.373Z,19.17
2019-04-29T15:07:14.359Z,19.53
2019-04-29T15:09:58.040Z,15.23
2019-04-29T15:12:27.992Z,20.03
2019-04-29T15:15:14.142Z,19.40
2019-04-29T15:17:47.203Z,13.87
2019-04-29T15:20:17.644Z,15.40
2019-04-29T15:22:46.698Z,15.27
2019-04-29T15:25:16.741Z,12.47
2019-04-29T15:27:45.967Z,30.93
2019-04-29T15:30:15.395Z,19.80
2019-04-29T15:32:43.969Z,12.63
2019-04-29T15:35:13.038Z,18.07
2019-04-29T15:37:41.647Z,11.90
2019-04-29T15:40:10.593Z,14.07
2019-04-29T15:42:43.255Z,11.30
2019-04-29T15:45:09.911Z,14.87
2019-04-29T15:47:41.572Z,12.23
2019-04-29T15:50:18.226Z,12.83
2019-04-29T15:52:39.484Z,12.37
2019-04-29T15:55:08.542Z,9.30
2019-04-29T15:57:37.137Z,10.50
2019-04-29T16:00:21.463Z,9.90
2019-04-29T16:02:41.499Z,14.27
2019-04-29T16:05:17.192Z,14.33
2019-04-29T16:07:55.793Z,15.20
2019-04-29T16:10:41.562Z,14.37
2019-04-29T16:13:13.933Z,16.43
2019-04-29T16:15:42.558Z,9.70
2019-04-29T16:18:14.745Z,12.07
2019-04-29T16:20:42.443Z,9.83
2019-04-29T16:23:11.042Z,9.07
2019-04-29T16:25:40.826Z,11.10
2019-04-29T16:28:09.861Z,7.07
2019-04-29T16:30:38.565Z,11.33
2019-04-29T16:33:14.086Z,8.10
2019-04-29T16:35:38.045Z,8.73
2019-04-29T16:38:11.769Z,8.57
2019-04-29T16:40:39.479Z,8.10
2019-04-29T16:43:13.318Z,9.03
2019-04-29T16:45:44.160Z,13.23
2019-04-29T16:48:13.908Z,10.63
2019-04-29T16:50:42.923Z,10.43
2019-04-29T16:53:11.560Z,9.93
2019-04-29T16:58:17.714Z,10.97
2019-04-29T17:00:46.555Z,9.90
2019-04-29T17:03:11.593Z,6.70
2019-04-29T17:05:40.222Z,12.03
2019-04-29T17:08:09.326Z,12.87
2019-04-29T17:10:59.373Z,7.60
2019-04-29T17:13:29.541Z,9.83
2019-04-29T17:16:01.652Z,13.20
2019-04-29T17:18:30.364Z,10.70
2019-04-29T17:21:04.617Z,11.73
2019-04-29T17:23:29.458Z,8.10
2019-04-29T17:25:59.632Z,8.37
2019-04-29T17:28:35.130Z,8.97
2019-04-29T17:31:23.976Z,10.53
2019-04-29T17:33:57.440Z,8.07
2019-04-29T17:35:14.349Z,8.20
2019-04-29T17:36:26.392Z,10.33
2019-04-29T17:38:55.881Z,9.20
2019-04-29T17:41:24.539Z,6.83
2019-04-29T17:43:57.625Z,5.30
2019-04-29T17:46:27.837Z,7.40
2019-04-29T17:49:13.148Z,7.07
2019-04-29T17:51:42.200Z,7.37
2019-04-29T17:54:15.875Z,12.60
2019-04-29T17:57:25.070Z,5.20
2019-04-29T17:59:52.660Z,5.37
2019-04-29T18:02:39.407Z,4.83
2019-04-29T18:05:18.660Z,5.40
2019-04-29T18:07:51.885Z,7.20
2019-04-29T18:10:29.517Z,9.80
2019-04-29T18:12:57.115Z,5.47
2019-04-29T18:15:27.365Z,5.53
2019-04-29T18:17:56.290Z,4.57
2019-04-29T18:20:35.817Z,5.60
2019-04-29T18:23:15.830Z,4.50
2019-04-29T18:26:00.582Z,4.03
2019-04-29T18:28:29.303Z,8.73
2019-04-29T18:30:59.869Z,6.50
2019-04-29T18:33:30.400Z,5.30
2019-04-29T18:36:04.247Z,8.40
2019-04-29T18:38:29.186Z,7.50
2019-04-29T18:40:57.813Z,8.30
2019-04-29T18:43:26.837Z,6.53
2019-04-29T18:45:58.803Z,9.60
2019-04-29T18:48:27.965Z,4.20
2019-04-29T18:50:57.108Z,6.90
2019-04-29T18:53:26.564Z,6.53
2019-04-29T18:55:57.017Z,5.53
2019-04-29T18:58:28.059Z,7.53
2019-04-29T19:00:59.445Z,11.03
2019-04-29T19:03:33.159Z,5.47
2019-04-29T19:06:10.264Z,6.97
2019-04-29T19:08:35.809Z,8.33
2019-04-29T19:11:06.863Z,6.47
2019-04-29T19:13:36.248Z,4.67
2019-04-29T19:16:10.320Z,11.23
2019-04-29T19:18:35.628Z,4.73
2019-04-29T19:21:04.253Z,7.10
2019-04-29T19:23:33.055Z,6.57
2019-04-29T19:26:01.675Z,11.73
2019-04-29T19:28:32.405Z,5.07
2019-04-29T19:31:03.224Z,7.50
2019-04-29T19:33:37.625Z,6.70
2019-04-29T19:36:01.440Z,5.30
2019-04-29T19:38:30.055Z,4.90
2019-04-29T19:40:58.680Z,5.50
2019-04-29T19:43:28.953Z,7.10
2019-04-29T19:45:57.767Z,10.43
2019-04-29T19:48:27.246Z,11.97
2019-04-29T19:51:14.603Z,7.33
2019-04-29T19:53:30.154Z,3.50
2019-04-29T19:56:04.092Z,6.30
2019-04-29T19:58:31.625Z,6.70
2019-04-29T20:01:10.851Z,4.27
2019-04-29T20:03:37.926Z,6.20
2019-04-29T20:06:24.831Z,7.97
2019-04-29T20:08:53.896Z,22.83
2019-04-29T20:11:18.670Z,7.00
2019-04-29T20:14:01.302Z,8.90
2019-04-29T20:16:24.978Z,8.77
2019-04-29T20:19:02.521Z,5.47
2019-04-29T20:21:36.276Z,7.03
2019-04-29T20:24:09.651Z,5.20
2019-04-29T20:26:36.061Z,6.77
2019-04-29T20:29:07.305Z,8.30
2019-04-29T20:31:38.852Z,6.17
2019-04-29T20:34:06.506Z,5.00
2019-04-29T20:36:41.742Z,6.57
2019-04-29T20:39:10.988Z,9.83
2019-04-29T20:41:41.970Z,4.00
2019-04-29T20:44:09.449Z,5.73
2019-04-29T20:46:45.517Z,5.90
2019-04-29T20:49:08.810Z,9.90
2019-04-29T20:51:48.980Z,5.63
2019-04-29T20:54:15.943Z,6.77
2019-04-29T20:56:40.082Z,6.93
2019-04-29T20:59:12.524Z,6.70
2019-04-29T21:01:43.206Z,8.30
2019-04-29T21:04:11.283Z,8.73
2019-04-29T21:06:56.558Z,4.97
2019-04-29T21:09:10.572Z,5.90
2019-04-29T21:11:45.620Z,7.37
2019-04-29T21:14:18.494Z,7.00
2019-04-29T21:16:51.717Z,5.60
2019-04-29T21:19:20.326Z,7.03
2019-04-29T21:21:49.041Z,7.47
2019-04-29T21:24:18.758Z,10.40
2019-04-29T21:26:47.605Z,9.27
2019-04-29T21:29:19.466Z,5.33
2019-04-29T21:31:50.584Z,4.30
2019-04-29T21:34:17.772Z,5.17
2019-04-29T21:36:51.179Z,4.83
2019-04-29T21:39:27.377Z,4.57
2019-04-29T21:41:59.981Z,5.10
2019-04-29T21:44:29.184Z,6.80
2019-04-29T21:47:03.779Z,5.40
2019-04-29T21:49:29.823Z,6.70
2019-04-29T21:51:58.528Z,6.03
2019-04-29T21:54:28.684Z,6.40
2019-04-29T21:56:58.755Z,5.93
2019-04-29T21:59:29.292Z,7.37
2019-04-29T22:01:59.409Z,4.40
2019-04-29T22:04:32.856Z,10.00
2019-04-29T22:07:04.854Z,4.67
2019-04-29T22:09:36.149Z,9.10
2019-04-29T22:12:01.127Z,7.00
2019-04-29T22:14:29.748Z,5.63
2019-04-29T22:16:58.741Z,8.23
2019-04-29T22:19:28.892Z,7.23
2019-04-29T22:22:01.666Z,7.20
2019-04-29T22:24:30.692Z,4.03
2019-04-29T22:27:04.031Z,10.33
2019-04-29T22:29:32.007Z,7.97
2019-04-29T22:32:00.307Z,6.33
2019-04-29T22:34:28.884Z,9.53
2019-04-29T22:37:01.269Z,9.20
2019-04-29T22:39:30.195Z,6.50
2019-04-29T22:42:12.747Z,4.63
2019-04-29T22:44:41.705Z,9.53
2019-04-29T22:47:10.378Z,6.83
2019-04-29T22:49:39.000Z,6.33
2019-04-29T22:52:09.031Z,17.10
2019-04-29T22:54:37.920Z,10.23
2019-04-29T22:57:06.790Z,8.87
2019-04-29T22:59:35.502Z,8.50
2019-04-29T23:02:05.777Z,7.33
2019-04-29T23:04:35.141Z,7.17
2019-04-29T23:07:03.786Z,9.10
2019-04-29T23:09:32.355Z,8.90
2019-04-29T23:12:00.960Z,11.40
2019-04-29T23:14:29.618Z,11.87
2019-04-29T23:17:01.213Z,11.50
2019-04-29T23:19:30.165Z,5.10
2019-04-29T23:22:06.628Z,11.33
2019-04-29T23:24:46.652Z,7.37
2019-04-29T23:27:25.910Z,6.40
2019-04-29T23:29:54.566Z,7.33
2019-04-29T23:32:25.254Z,6.00
2019-04-29T23:34:55.033Z,7.77
2019-04-29T23:37:29.065Z,5.83
2019-04-29T23:39:55.749Z,12.33
2019-04-29T23:42:26.187Z,6.70
2019-04-29T23:44:57.079Z,6.93
2019-04-29T23:47:25.811Z,5.07
2019-04-29T23:49:57.680Z,5.60
2019-04-29T23:52:28.613Z,7.43
2019-04-29T23:55:01.599Z,10.27
2019-04-29T23:57:35.854Z,11.17
